Earlton, Earlton (Timiskaming Regional) Airport (CYXR)

NameEarlton (Timiskaming Regional) Airport
CityEarlton
CountryCanada
ICAOCYXR
IATAYXR
Altitude244 m
CoordinatesGoogle Map
Live Air TrafficLiveATC.net
METARCYXR 130900Z AUTO 29010KT 9SM OVC018 M18/M21 A3027 RMK SLP277
2019-11-13 09:00:00 Wind: West (290°) 5.14 m/s - Visibility: 14484.06 m - Temperature: -18 °C - Dew point: -21 °C - Humidity: 77.5% - Pressure: 1025.06 hPa

Sorry, no flights used the airport in this database.